createdAt,value
2019-06-26T12:30:46.797Z,27.74
2019-06-26T12:33:18.323Z,27.36
2019-06-26T12:35:47.530Z,27.19
2019-06-26T12:38:17.729Z,27.33
2019-06-26T12:40:48.575Z,27.50
2019-06-26T12:50:14.147Z,27.71
2019-06-26T12:53:13.844Z,28.05
2019-06-26T12:55:52.109Z,28.47
2019-06-26T12:58:27.315Z,28.95
2019-06-26T13:00:57.482Z,29.42
2019-06-26T13:03:32.324Z,29.60
2019-06-26T13:06:07.420Z,29.61
2019-06-26T13:08:38.255Z,29.76
2019-06-26T13:11:07.269Z,29.84
2019-06-26T13:14:01.147Z,29.97
2019-06-26T13:16:15.098Z,30.14
2019-06-26T13:18:50.175Z,30.20
2019-06-26T13:21:19.287Z,30.21
2019-06-26T13:23:57.269Z,30.38
2019-06-26T13:26:32.353Z,30.53
2019-06-26T13:29:09.968Z,30.51
2019-06-26T13:31:39.451Z,30.46
2019-06-26T13:34:14.338Z,30.58
2019-06-26T13:37:07.305Z,30.67
2019-06-26T13:39:38.556Z,30.51
2019-06-26T13:42:15.319Z,30.40
2019-06-26T13:44:51.186Z,30.31
2019-06-26T13:47:20.188Z,30.19
2019-06-26T13:49:49.128Z,29.84
2019-06-26T13:52:24.459Z,29.51
2019-06-26T13:54:57.029Z,29.23
2019-06-26T13:57:23.954Z,29.34
2019-06-26T13:59:53.829Z,29.63
2019-06-26T14:02:29.880Z,29.52
2019-06-26T14:04:58.996Z,29.10
2019-06-26T14:07:28.035Z,28.50
2019-06-26T14:09:57.062Z,28.33
2019-06-26T14:12:26.913Z,28.05
2019-06-26T14:14:57.764Z,27.94
2019-06-26T14:17:28.053Z,27.87
2019-06-26T14:19:57.297Z,27.89
2019-06-26T14:22:26.526Z,28.15
2019-06-26T14:24:56.168Z,28.33
2019-06-26T14:27:26.447Z,28.49
2019-06-26T14:29:55.967Z,28.53
2019-06-26T14:32:28.368Z,28.70
2019-06-26T14:35:04.248Z,28.88
2019-06-26T14:37:51.581Z,28.92
2019-06-26T14:40:25.733Z,29.00
2019-06-26T14:42:57.639Z,29.05
2019-06-26T14:45:26.683Z,29.04
2019-06-26T14:47:57.311Z,29.01
2019-06-26T14:50:35.592Z,29.04
2019-06-26T14:53:06.516Z,28.63
2019-06-26T14:55:36.819Z,28.23
2019-06-26T14:58:12.469Z,27.93
2019-06-26T15:00:48.481Z,27.98
2019-06-26T15:03:18.389Z,28.11
2019-06-26T15:05:50.447Z,28.18
2019-06-26T15:08:20.755Z,27.95
2019-06-26T15:10:49.880Z,27.92
2019-06-26T15:13:25.605Z,27.96
2019-06-26T15:16:02.407Z,28.09
2019-06-26T15:18:37.337Z,28.19
2019-06-26T15:21:09.203Z,28.07
2019-06-26T15:23:44.085Z,28.02
2019-06-26T15:26:13.989Z,28.12
2019-06-26T15:28:46.409Z,28.15
2019-06-26T15:31:15.890Z,28.27
2019-06-26T15:33:45.195Z,28.34
2019-06-26T15:36:21.710Z,28.38
2019-06-26T15:39:09.120Z,28.41
2019-06-26T15:41:43.441Z,28.40
2019-06-26T15:44:18.380Z,28.33
2019-06-26T15:46:52.976Z,28.36
2019-06-26T15:49:24.171Z,28.25
2019-06-26T15:51:55.307Z,28.29
2019-06-26T15:54:27.330Z,28.31
2019-06-26T15:57:02.238Z,28.19
2019-06-26T15:59:31.330Z,27.98
2019-06-26T16:02:00.746Z,27.96
2019-06-26T16:04:35.088Z,27.84
2019-06-26T16:07:03.547Z,27.84
2019-06-26T16:09:41.770Z,28.03
2019-06-26T16:12:12.255Z,28.11
2019-06-26T16:14:41.043Z,28.07
2019-06-26T16:17:17.416Z,28.17
2019-06-26T16:19:46.390Z,28.21
2019-06-26T16:22:31.578Z,28.15
2019-06-26T16:24:52.592Z,28.17
2019-06-26T16:27:27.608Z,28.22
2019-06-26T16:29:56.548Z,28.22
2019-06-26T16:32:25.714Z,28.23
2019-06-26T16:34:54.674Z,28.12
2019-06-26T16:37:25.520Z,28.15
2019-06-26T16:40:00.548Z,28.15
2019-06-26T16:42:40.968Z,28.09
2019-06-26T16:45:11.381Z,28.01
2019-06-26T16:47:44.575Z,27.99
2019-06-26T16:50:14.580Z,27.98
2019-06-26T16:52:49.782Z,27.91
2019-06-26T16:55:15.918Z,27.89
2019-06-26T16:57:51.151Z,27.85
2019-06-26T17:00:20.997Z,27.80
2019-06-26T17:02:49.918Z,27.70
2019-06-26T17:05:19.100Z,27.60
2019-06-26T17:07:54.236Z,27.44
2019-06-26T17:10:30.755Z,27.34
2019-06-26T17:13:05.830Z,27.35
2019-06-26T17:15:35.621Z,27.41
2019-06-26T17:18:05.247Z,27.48
2019-06-26T17:20:34.228Z,27.58
2019-06-26T17:23:09.391Z,27.47
2019-06-26T17:25:41.210Z,27.31
2019-06-26T17:28:16.786Z,27.29
2019-06-26T17:30:45.899Z,27.33
2019-06-26T17:33:21.506Z,27.26
2019-06-26T17:35:50.757Z,27.22
2019-06-26T17:38:26.319Z,27.11
2019-06-26T17:40:59.683Z,26.88
2019-06-26T17:43:28.593Z,26.88
2019-06-26T17:45:58.091Z,26.77
2019-06-26T17:48:27.227Z,26.63
2019-06-26T17:50:58.545Z,26.67
2019-06-26T17:53:28.294Z,26.68
2019-06-26T17:55:59.053Z,26.51
2019-06-26T17:58:32.203Z,26.46
2019-06-26T18:01:03.649Z,26.39
2019-06-26T18:03:35.245Z,26.34
2019-06-26T18:06:10.483Z,26.23
2019-06-26T18:08:51.718Z,26.07
2019-06-26T18:11:33.384Z,26.03
2019-06-26T18:14:04.088Z,26.02
2019-06-26T18:16:38.943Z,25.98
2019-06-26T18:19:14.011Z,25.88
2019-06-26T18:21:49.632Z,25.66
2019-06-26T18:24:27.754Z,25.50
2019-06-26T18:26:57.473Z,25.36
2019-06-26T18:29:32.190Z,25.29
2019-06-26T18:32:02.352Z,25.30
2019-06-26T18:34:31.832Z,25.31
2019-06-26T18:37:07.086Z,25.26
2019-06-26T18:39:36.032Z,25.10
2019-06-26T18:42:11.555Z,25.04
2019-06-26T18:44:40.471Z,25.05
2019-06-26T18:47:21.704Z,25.06
2019-06-26T18:49:51.175Z,24.95
2019-06-26T18:52:21.186Z,24.81
2019-06-26T18:54:50.223Z,24.66
2019-06-26T18:57:25.800Z,24.50
2019-06-26T18:59:58.671Z,24.46
2019-06-26T19:02:30.726Z,24.38
2019-06-26T19:05:09.918Z,24.30
2019-06-26T19:07:42.477Z,24.20
2019-06-26T19:10:17.778Z,24.08
2019-06-26T19:12:53.462Z,24.00
2019-06-26T19:15:25.056Z,23.85
2019-06-26T19:17:59.993Z,23.71
2019-06-26T19:20:33.658Z,23.60
2019-06-26T19:23:01.453Z,23.51
2019-06-26T19:25:32.359Z,23.39
2019-06-26T19:28:01.523Z,23.32
2019-06-26T19:30:30.702Z,23.24
2019-06-26T19:33:00.897Z,23.15
2019-06-26T19:35:32.829Z,23.12
2019-06-26T19:38:02.096Z,23.04
2019-06-26T19:40:31.548Z,22.98
2019-06-26T19:43:11.062Z,22.94
2019-06-26T19:45:39.879Z,22.85
2019-06-26T19:48:09.625Z,22.81
2019-06-26T19:50:38.925Z,22.78
2019-06-26T19:53:15.863Z,22.75
2019-06-26T19:55:46.607Z,22.68
2019-06-26T19:58:21.300Z,22.64
2019-06-26T20:00:48.346Z,22.61
2019-06-26T20:03:17.748Z,22.50
2019-06-26T20:05:47.249Z,22.42
2019-06-26T20:08:17.915Z,22.38
2019-06-26T20:10:47.523Z,22.33
2019-06-26T20:13:18.257Z,22.25
2019-06-26T20:15:47.359Z,22.19
2019-06-26T20:21:04.773Z,22.13
2019-06-26T20:23:34.047Z,22.10
2019-06-26T20:26:03.238Z,22.08
2019-06-26T20:28:33.912Z,22.02
2019-06-26T20:31:08.719Z,21.96
2019-06-26T20:33:38.318Z,21.92
2019-06-26T20:36:14.361Z,21.90
2019-06-26T20:38:47.421Z,21.88
2019-06-26T20:41:17.119Z,21.84
2019-06-26T20:43:52.070Z,21.81
2019-06-26T20:46:36.689Z,21.75
2019-06-26T20:49:06.750Z,21.59
2019-06-26T20:51:36.941Z,21.65
2019-06-26T20:54:14.509Z,21.64
2019-06-26T20:57:01.670Z,21.62
2019-06-26T20:59:33.965Z,21.58
2019-06-26T21:02:03.514Z,21.55
2019-06-26T21:04:33.928Z,21.51
2019-06-26T21:07:04.760Z,21.46
2019-06-26T21:09:34.046Z,21.40
2019-06-26T21:12:04.559Z,21.33
2019-06-26T21:14:40.049Z,21.33
2019-06-26T21:17:16.948Z,21.29
2019-06-26T21:19:52.740Z,21.26
2019-06-26T21:22:21.989Z,21.23
2019-06-26T21:24:57.088Z,21.19
2019-06-26T21:27:26.787Z,21.17
2019-06-26T21:30:01.982Z,21.17
2019-06-26T21:32:37.078Z,21.17
2019-06-26T21:35:12.371Z,21.15
2019-06-26T21:37:41.541Z,21.13
2019-06-26T21:40:17.733Z,21.12
2019-06-26T21:42:54.782Z,21.10
2019-06-26T21:45:27.416Z,21.09
2019-06-26T21:48:02.631Z,21.07
2019-06-26T21:50:32.872Z,21.03
2019-06-26T21:53:10.589Z,20.99
2019-06-26T21:55:39.773Z,20.96
2019-06-26T21:58:09.366Z,20.94
2019-06-26T22:00:40.975Z,20.93
2019-06-26T22:03:13.268Z,20.92
2019-06-26T22:05:42.435Z,20.88
2019-06-26T22:08:11.704Z,20.79
2019-06-26T22:10:40.889Z,20.85
2019-06-26T22:13:10.021Z,20.78
2019-06-26T22:22:35.095Z,20.63
2019-06-26T22:25:07.711Z,20.60
2019-06-26T22:27:44.994Z,20.60
2019-06-26T22:30:21.827Z,20.53
2019-06-26T22:33:00.048Z,20.45
2019-06-26T22:35:34.765Z,20.40
2019-06-26T22:38:03.865Z,20.32
2019-06-26T22:40:39.203Z,20.26
2019-06-26T22:43:13.830Z,20.20
2019-06-26T22:45:48.759Z,20.17
2019-06-26T22:48:21.618Z,20.14
2019-06-26T22:50:53.359Z,20.11
2019-06-26T22:53:28.178Z,20.05
2019-06-26T22:56:06.939Z,19.98
2019-06-26T22:58:34.073Z,19.91
2019-06-26T23:01:09.468Z,19.87
2019-06-26T23:03:38.805Z,19.82
2019-06-26T23:06:10.863Z,19.77
2019-06-26T23:08:40.437Z,19.70
2019-06-26T23:11:21.988Z,19.60
2019-06-26T23:13:57.605Z,19.53
2019-06-26T23:16:28.786Z,19.45
2019-06-26T23:19:02.255Z,19.40
2019-06-26T23:21:34.227Z,19.29
2019-06-26T23:24:03.349Z,19.18
2019-06-26T23:26:39.030Z,19.06
2019-06-26T23:29:14.368Z,18.95
2019-06-26T23:31:51.346Z,18.88
2019-06-26T23:34:23.331Z,18.81
2019-06-26T23:36:59.243Z,18.72
2019-06-26T23:39:28.881Z,18.68
2019-06-26T23:42:04.483Z,18.61
2019-06-26T23:44:39.676Z,18.58
2019-06-26T23:47:11.555Z,18.51
2019-06-26T23:49:42.242Z,18.44
2019-06-26T23:52:20.505Z,18.33
2019-06-26T23:54:50.604Z,18.25
2019-06-26T23:57:24.365Z,18.15
2019-06-26T23:59:56.711Z,18.12
